Time;durP1;ratioP1;P1;durP2;ratioP2;P2;SDS_P1;SDS_P2;PMS_P1;PMS_P2;Temp;Humidity;BMP_temperature;BMP_pressure;BME280_temperature;BME280_humidity;BME280_pressure;Samples;Min_cycle;Max_cycle;Signal;HPM_P1;HPM_P2
2021/04/22 00:01:46;;;;;;;2.15;2.00;;;10.00;94.50;;;;;;5079520;28;20203;-61
2021/04/22 00:04:13;;;;;;;2.47;2.28;;;10.10;94.30;;;;;;5085012;28;20529;-61
2021/04/22 00:06:39;;;;;;;0.93;0.93;;;10.20;94.20;;;;;;5081073;28;20201;-61
2021/04/22 00:09:08;;;;;;;1.45;1.35;;;10.20;94.60;;;;;;5082970;28;20212;-61
2021/04/22 00:11:35;;;;;;;2.05;1.30;;;10.50;94.20;;;;;;5081570;28;20228;-60
2021/04/22 00:14:05;;;;;;;1.30;1.30;;;10.70;93.40;;;;;;5080207;28;20220;-62
2021/04/22 00:16:32;;;;;;;1.70;1.60;;;10.70;93.60;;;;;;5081141;28;20214;-62
2021/04/22 00:18:59;;;;;;;4.45;2.85;;;10.80;93.30;;;;;;5079429;28;20210;-61
2021/04/22 00:21:25;;;;;;;2.17;1.95;;;10.80;93.20;;;;;;5086935;28;20208;-61
2021/04/22 00:23:52;;;;;;;2.28;1.90;;;10.90;93.00;;;;;;5081233;28;20209;-60
2021/04/22 00:26:18;;;;;;;3.40;1.88;;;10.90;93.20;;;;;;5079297;28;20217;-60
2021/04/22 00:28:45;;;;;;;1.58;1.13;;;10.70;93.50;;;;;;5067893;28;20202;-62
2021/04/22 00:31:12;;;;;;;4.88;2.92;;;10.60;93.80;;;;;;5060545;28;20225;-61
2021/04/22 00:33:39;;;;;;;3.50;1.92;;;10.50;94.10;;;;;;5092348;28;20232;-61
2021/04/22 00:36:06;;;;;;;3.72;2.17;;;10.40;94.40;;;;;;5085249;28;20209;-61
2021/04/22 00:38:33;;;;;;;1.67;1.58;;;10.30;94.60;;;;;;5089137;28;20476;-60
2021/04/22 00:40:59;;;;;;;3.33;2.05;;;10.30;94.60;;;;;;5080509;28;20590;-61
2021/04/22 00:43:26;;;;;;;1.65;1.58;;;10.20;94.70;;;;;;5080590;28;20203;-61
2021/04/22 00:45:53;;;;;;;1.40;1.40;;;10.30;94.50;;;;;;5081904;28;20209;-61
2021/04/22 00:48:25;;;;;;;2.83;2.08;;;10.20;94.90;;;;;;5085953;28;20502;-62
2021/04/22 00:50:53;;;;;;;4.20;2.90;;;10.30;94.90;;;;;;5085065;28;20241;-61
2021/04/22 00:53:20;;;;;;;1.58;1.55;;;10.20;94.90;;;;;;5083988;28;20195;-62
2021/04/22 00:55:48;;;;;;;1.95;1.85;;;10.00;95.40;;;;;;5086361;28;20210;-60
2021/04/22 00:58:15;;;;;;;2.10;1.75;;;10.00;95.60;;;;;;5076510;28;20205;-62
2021/04/22 01:00:51;;;;;;;1.98;1.88;;;9.90;95.80;;;;;;5088584;28;20233;-60
2021/04/22 01:03:17;;;;;;;2.95;2.75;;;10.00;95.70;;;;;;5081553;28;20503;-60
2021/04/22 01:05:51;;;;;;;1.92;1.83;;;10.10;95.70;;;;;;5085860;28;20208;-60
2021/04/22 01:08:18;;;;;;;2.28;1.40;;;10.00;96.80;;;;;;5081357;28;20206;-61
2021/04/22 01:10:45;;;;;;;3.38;3.03;;;10.30;96.40;;;;;;5079957;28;20211;-60
2021/04/22 01:13:11;;;;;;;4.68;3.00;;;10.20;97.10;;;;;;5088952;28;20218;-60
2021/04/22 01:15:38;;;;;;;1.63;1.52;;;10.30;97.30;;;;;;5076601;28;20247;-60
2021/04/22 01:18:07;;;;;;;5.07;3.45;;;10.40;97.20;;;;;;5089698;28;20406;-61
2021/04/22 01:20:40;;;;;;;1.88;1.77;;;10.60;97.00;;;;;;5076239;28;20259;-61
2021/04/22 01:23:07;;;;;;;1.73;1.60;;;10.60;97.10;;;;;;5087406;28;20284;-61
2021/04/22 01:25:36;;;;;;;2.50;1.42;;;10.60;97.20;;;;;;5069267;28;20205;-61
2021/04/22 01:28:05;;;;;;;2.72;1.73;;;10.30;97.40;;;;;;5079648;28;20231;-61
2021/04/22 01:30:35;;;;;;;2.60;2.45;;;10.00;98.40;;;;;;5084350;28;20206;-61
2021/04/22 01:33:02;;;;;;;1.13;1.13;;;9.90;98.20;;;;;;5070855;28;20238;-61
2021/04/22 01:35:35;;;;;;;0.50;0.50;;;9.80;98.60;;;;;;5080335;28;20204;-61
2021/04/22 01:38:03;;;;;;;2.50;2.25;;;9.80;98.90;;;;;;5096594;28;20545;-62
2021/04/22 01:40:31;;;;;;;4.40;2.10;;;9.70;99.80;;;;;;5080336;28;20292;-61
2021/04/22 01:42:57;;;;;;;2.67;2.25;;;9.60;99.90;;;;;;5083657;28;20223;-61
2021/04/22 01:45:24;;;;;;;4.30;4.00;;;9.40;99.90;;;;;;5091096;28;20208;-61
2021/04/22 01:47:55;;;;;;;1.65;1.55;;;9.20;99.90;;;;;;5084852;28;20219;-61
2021/04/22 01:50:26;;;;;;;1.80;1.70;;;9.20;99.90;;;;;;5078855;28;20237;-62
2021/04/22 01:52:55;;;;;;;1.35;1.33;;;9.20;99.90;;;;;;5079295;28;20231;-63
2021/04/22 01:55:39;;;;;;;1.85;1.75;;;9.10;99.90;;;;;;5091955;28;20531;-61
2021/04/22 01:58:08;;;;;;;4.25;2.42;;;9.00;99.90;;;;;;5074517;28;20200;-62
2021/04/22 02:00:40;;;;;;;2.35;2.15;;;9.00;99.90;;;;;;5091969;28;20424;-63
2021/04/22 02:03:07;;;;;;;4.38;1.75;;;9.00;99.90;;;;;;5077402;28;20261;-61
2021/04/22 02:05:35;;;;;;;1.98;1.83;;;9.00;99.90;;;;;;5078024;28;20387;-62
2021/04/22 02:08:02;;;;;;;3.20;2.90;;;9.00;99.90;;;;;;5076656;28;20679;-62
2021/04/22 02:10:29;;;;;;;3.05;2.33;;;9.10;99.90;;;;;;5079306;28;20209;-62
2021/04/22 02:12:56;;;;;;;1.80;1.40;;;9.10;99.90;;;;;;5075052;28;20225;-62
2021/04/22 02:15:26;;;;;;;3.03;2.78;;;9.00;99.90;;;;;;5077936;28;20219;-61
2021/04/22 02:17:53;;;;;;;3.47;3.17;;;9.00;99.90;;;;;;5078374;28;20525;-62
2021/04/22 02:20:20;;;;;;;2.58;2.35;;;8.90;99.90;;;;;;5073331;28;20207;-62
2021/04/22 02:22:48;;;;;;;7.43;2.75;;;8.80;99.90;;;;;;5078679;28;20214;-60
2021/04/22 02:25:18;;;;;;;3.63;2.50;;;8.70;99.90;;;;;;5072185;28;20214;-61
2021/04/22 02:27:45;;;;;;;6.88;3.05;;;8.70;99.90;;;;;;5073887;28;20208;-63
2021/04/22 02:30:18;;;;;;;2.85;2.38;;;8.60;99.90;;;;;;5071506;28;20404;-62
2021/04/22 02:32:45;;;;;;;2.58;2.38;;;8.50;99.90;;;;;;5094903;28;20239;-61
2021/04/22 02:35:13;;;;;;;3.50;1.65;;;8.40;99.90;;;;;;5080915;28;20208;-61
2021/04/22 02:37:40;;;;;;;1.25;1.15;;;8.30;99.90;;;;;;5080277;28;20207;-61
2021/04/22 02:40:09;;;;;;;4.88;1.90;;;8.20;99.90;;;;;;5075538;28;20206;-63
2021/04/22 02:42:36;;;;;;;1.45;1.35;;;8.20;99.90;;;;;;5080854;28;20229;-62
2021/04/22 02:45:20;;;;;;;1.40;1.30;;;8.10;99.90;;;;;;5085215;28;20397;-61
2021/04/22 02:47:46;;;;;;;1.67;1.58;;;8.10;99.90;;;;;;5073923;28;20214;-61
2021/04/22 02:50:16;;;;;;;0.93;0.88;;;8.10;99.90;;;;;;5078723;28;20230;-62
2021/04/22 02:52:43;;;;;;;1.67;1.58;;;8.20;99.90;;;;;;5079022;28;20237;-62
2021/04/22 02:55:11;;;;;;;1.08;1.08;;;8.10;99.90;;;;;;5074618;28;20437;-62
2021/04/22 02:57:37;;;;;;;1.48;1.38;;;8.10;99.90;;;;;;5073013;28;20545;-61
2021/04/22 03:00:08;;;;;;;1.02;1.00;;;8.10;99.90;;;;;;5058432;28;20214;-62
2021/04/22 03:02:34;;;;;;;1.95;1.38;;;8.10;99.90;;;;;;5061881;28;20211;-61
2021/04/22 03:05:02;;;;;;;1.20;0.98;;;8.10;99.90;;;;;;5077434;28;20211;-62
2021/04/22 03:07:28;;;;;;;0.68;0.63;;;8.10;99.90;;;;;;5076214;28;20208;-62
2021/04/22 03:09:55;;;;;;;1.33;0.90;;;8.10;99.90;;;;;;5078611;28;20297;-62
2021/04/22 03:12:21;;;;;;;3.20;1.15;;;8.10;99.90;;;;;;5065494;28;20240;-62
2021/04/22 03:14:48;;;;;;;1.23;1.20;;;8.10;99.90;;;;;;5072198;28;20406;-61
2021/04/22 03:17:14;;;;;;;1.52;1.42;;;8.10;99.90;;;;;;5069669;28;20446;-62
2021/04/22 03:19:41;;;;;;;2.05;1.95;;;8.20;99.90;;;;;;5077712;28;20521;-61
2021/04/22 03:22:07;;;;;;;0.40;0.40;;;8.20;99.90;;;;;;5068966;28;20228;-61
2021/04/22 03:24:34;;;;;;;0.55;0.55;;;8.10;99.90;;;;;;5058098;28;20216;-61
2021/04/22 03:27:01;;;;;;;2.33;1.45;;;8.00;99.90;;;;;;5058223;28;20209;-61
2021/04/22 03:29:27;;;;;;;2.22;1.40;;;8.00;99.90;;;;;;5072541;28;20416;-61
2021/04/22 03:31:54;;;;;;;0.40;0.40;;;8.00;99.90;;;;;;5058435;28;20441;-62
2021/04/22 03:34:21;;;;;;;0.50;0.50;;;8.10;99.90;;;;;;5070410;28;20448;-61
2021/04/22 03:36:47;;;;;;;0.70;0.70;;;8.10;99.90;;;;;;5079185;28;20212;-62
2021/04/22 03:39:14;;;;;;;2.67;1.55;;;8.10;99.90;;;;;;5077826;28;20405;-62
2021/04/22 03:41:41;;;;;;;0.60;0.60;;;8.10;99.90;;;;;;5090102;28;20532;-62
2021/04/22 03:44:07;;;;;;;1.40;0.55;;;8.10;99.90;;;;;;5087134;28;20424;-62
2021/04/22 03:46:34;;;;;;;1.67;1.60;;;8.10;99.90;;;;;;5079738;28;20204;-61
2021/04/22 03:49:01;;;;;;;0.98;0.98;;;8.10;99.90;;;;;;5061467;28;20243;-61
2021/04/22 03:51:28;;;;;;;0.40;0.40;;;8.20;99.90;;;;;;5073818;28;20249;-61
2021/04/22 03:53:55;;;;;;;1.05;0.60;;;8.10;98.90;;;;;;5081818;28;20324;-61
2021/04/22 03:56:21;;;;;;;0.38;0.38;;;8.00;99.10;;;;;;5081552;28;20397;-60
2021/04/22 03:58:48;;;;;;;0.40;0.40;;;8.00;98.80;;;;;;5077073;28;20250;-62
2021/04/22 04:01:15;;;;;;;1.85;0.60;;;8.00;99.80;;;;;;5081942;28;20196;-62
2021/04/22 04:03:42;;;;;;;0.60;0.60;;;8.00;99.50;;;;;;5081566;28;20564;-62
2021/04/22 04:06:09;;;;;;;0.73;0.68;;;8.00;99.00;;;;;;5072248;28;20241;-62
2021/04/22 04:08:35;;;;;;;0.40;0.40;;;7.90;99.10;;;;;;5078313;28;20203;-62
2021/04/22 04:11:02;;;;;;;0.40;0.40;;;7.90;98.40;;;;;;5070842;28;20250;-63
2021/04/22 04:13:29;;;;;;;0.40;0.40;;;7.80;97.50;;;;;;5076424;28;20195;-61
2021/04/22 04:15:55;;;;;;;0.93;0.77;;;7.70;95.80;;;;;;5081679;28;20199;-62
2021/04/22 04:18:22;;;;;;;0.90;0.90;;;7.70;95.70;;;;;;5076614;28;20222;-61
2021/04/22 04:20:49;;;;;;;0.40;0.40;;;7.70;95.80;;;;;;5071078;28;20203;-62
2021/04/22 04:23:16;;;;;;;1.58;1.45;;;7.60;96.20;;;;;;5075038;28;20227;-61
2021/04/22 04:25:42;;;;;;;0.50;0.50;;;7.60;96.40;;;;;;5076400;28;20207;-63
2021/04/22 04:28:09;;;;;;;0.50;0.50;;;7.70;96.00;;;;;;5073364;28;20203;-61
2021/04/22 04:30:36;;;;;;;0.40;0.40;;;7.60;95.80;;;;;;5081163;28;20199;-61
2021/04/22 04:33:04;;;;;;;0.40;0.40;;;7.60;94.80;;;;;;5078879;28;20441;-63
2021/04/22 04:35:31;;;;;;;0.57;0.57;;;7.50;94.10;;;;;;5068886;28;20204;-62
2021/04/22 04:37:58;;;;;;;0.75;0.55;;;7.40;94.10;;;;;;5080861;28;20205;-62
2021/04/22 04:40:25;;;;;;;0.50;0.50;;;7.30;94.10;;;;;;5080196;28;20353;-61
2021/04/22 04:42:51;;;;;;;0.60;0.60;;;7.20;93.30;;;;;;5087519;28;20245;-62
2021/04/22 04:45:19;;;;;;;0.43;0.43;;;7.10;93.90;;;;;;5085090;28;20481;-61
2021/04/22 04:47:47;;;;;;;0.50;0.50;;;7.10;93.90;;;;;;5073249;28;20214;-62
2021/04/22 04:50:14;;;;;;;0.40;0.40;;;7.20;93.40;;;;;;5061464;28;20307;-61
2021/04/22 04:52:41;;;;;;;0.50;0.50;;;7.20;92.90;;;;;;5073564;28;20216;-61
2021/04/22 04:55:09;;;;;;;1.77;0.88;;;7.10;92.90;;;;;;5078789;28;20207;-61
2021/04/22 04:57:36;;;;;;;0.60;0.60;;;7.00;92.80;;;;;;5075975;28;20214;-61
2021/04/22 05:00:05;;;;;;;0.50;0.50;;;6.90;92.60;;;;;;5080051;28;20205;-61
2021/04/22 05:02:33;;;;;;;0.60;0.60;;;6.80;93.40;;;;;;5075557;28;20678;-60
2021/04/22 05:05:03;;;;;;;0.50;0.50;;;6.80;92.80;;;;;;5071734;28;20199;-61
2021/04/22 05:07:29;;;;;;;0.73;0.70;;;6.70;92.80;;;;;;5075768;28;20279;-61
2021/04/22 05:09:56;;;;;;;0.50;0.50;;;6.80;92.30;;;;;;5074011;28;20214;-63
2021/04/22 05:12:23;;;;;;;1.63;0.73;;;6.70;93.40;;;;;;5076570;28;20223;-62
2021/04/22 05:14:50;;;;;;;0.60;0.60;;;6.80;92.80;;;;;;5070399;28;20206;-62
2021/04/22 05:17:17;;;;;;;0.50;0.50;;;6.80;92.80;;;;;;5079894;28;20195;-61
2021/04/22 05:19:44;;;;;;;0.70;0.70;;;6.90;93.10;;;;;;5076369;28;20211;-62
2021/04/22 05:22:11;;;;;;;0.50;0.50;;;7.00;92.50;;;;;;5079137;28;20217;-62
2021/04/22 05:24:38;;;;;;;0.50;0.50;;;7.00;92.90;;;;;;5085818;28;20208;-62
2021/04/22 05:27:05;;;;;;;0.60;0.60;;;7.20;92.70;;;;;;5076641;28;20202;-62
2021/04/22 05:29:32;;;;;;;0.60;0.60;;;7.30;92.40;;;;;;5079607;28;20207;-61
2021/04/22 05:31:58;;;;;;;0.60;0.60;;;7.40;92.20;;;;;;5075890;28;20226;-61
2021/04/22 05:34:25;;;;;;;0.60;0.60;;;7.40;91.90;;;;;;5074678;28;20501;-62
2021/04/22 05:36:52;;;;;;;2.80;1.35;;;7.50;91.70;;;;;;5080972;28;20818;-62
2021/04/22 05:39:20;;;;;;;0.50;0.50;;;7.50;92.80;;;;;;5079046;28;20196;-62
2021/04/22 05:41:47;;;;;;;1.38;1.02;;;7.60;92.70;;;;;;5079209;28;20722;-61
2021/04/22 05:44:14;;;;;;;0.60;0.60;;;7.60;91.90;;;;;;5078939;28;20207;-62
2021/04/22 05:46:41;;;;;;;0.60;0.60;;;7.80;92.40;;;;;;5070335;28;20221;-62
2021/04/22 05:49:08;;;;;;;0.60;0.60;;;7.80;91.80;;;;;;5072603;28;20194;-61
2021/04/22 05:51:38;;;;;;;0.98;0.98;;;7.60;91.60;;;;;;5064878;28;20247;-62
2021/04/22 05:54:05;;;;;;;0.80;0.80;;;7.50;91.60;;;;;;5070311;28;20196;-63
2021/04/22 05:56:32;;;;;;;1.52;1.00;;;7.70;91.80;;;;;;5050913;28;20448;-62
2021/04/22 05:59:00;;;;;;;0.88;0.88;;;7.60;91.10;;;;;;5048745;28;20638;-62
2021/04/22 06:01:26;;;;;;;0.60;0.60;;;7.70;91.50;;;;;;5069801;28;20195;-63
2021/04/22 06:03:53;;;;;;;0.60;0.60;;;7.80;90.50;;;;;;5069315;28;20242;-63
2021/04/22 06:06:19;;;;;;;1.23;1.23;;;7.70;91.20;;;;;;5074737;28;20203;-61
2021/04/22 06:08:47;;;;;;;0.60;0.60;;;7.70;90.60;;;;;;5072372;28;20270;-61
2021/04/22 06:11:14;;;;;;;0.70;0.70;;;7.70;90.80;;;;;;5076232;28;20205;-62
2021/04/22 06:13:41;;;;;;;1.48;1.38;;;8.00;90.50;;;;;;5075148;28;20211;-62
2021/04/22 06:16:08;;;;;;;0.90;0.90;;;8.60;88.00;;;;;;5083035;28;20211;-62
2021/04/22 06:18:35;;;;;;;1.20;1.20;;;9.10;85.60;;;;;;5066136;28;20268;-61
2021/04/22 06:21:02;;;;;;;1.50;1.50;;;9.20;82.50;;;;;;5079029;28;20436;-62
2021/04/22 06:23:29;;;;;;;1.60;1.60;;;9.30;80.00;;;;;;5067961;28;20276;-62
2021/04/22 06:25:56;;;;;;;2.45;2.35;;;9.60;81.20;;;;;;5071592;28;20282;-61
2021/04/22 06:28:23;;;;;;;1.88;1.88;;;10.20;81.20;;;;;;5063446;28;20214;-62
2021/04/22 06:30:50;;;;;;;2.10;2.10;;;11.00;78.90;;;;;;5069697;28;20272;-62
2021/04/22 06:33:17;;;;;;;1.90;1.90;;;11.20;69.30;;;;;;5067408;28;20372;-65
2021/04/22 06:35:44;;;;;;;2.30;2.30;;;11.00;73.30;;;;;;5073098;28;20213;-61
2021/04/22 06:38:10;;;;;;;2.65;2.58;;;11.70;63.70;;;;;;5067204;28;20214;-64
2021/04/22 06:40:37;;;;;;;2.60;2.60;;;11.30;64.20;;;;;;5078794;28;20214;-62
2021/04/22 06:43:09;;;;;;;2.30;2.30;;;10.70;67.70;;;;;;5060230;28;20559;-62
2021/04/22 06:45:37;;;;;;;3.83;3.63;;;10.20;69.00;;;;;;5077883;28;20217;-62
2021/04/22 06:48:06;;;;;;;2.30;2.30;;;10.20;70.00;;;;;;5063177;28;20211;-64
2021/04/22 06:50:33;;;;;;;2.50;2.40;;;11.80;64.20;;;;;;5077208;28;20241;-62
2021/04/22 06:53:00;;;;;;;3.10;3.00;;;13.40;56.90;;;;;;5078833;28;20436;-62
2021/04/22 06:55:27;;;;;;;3.60;3.50;;;15.00;52.00;;;;;;5074606;28;20493;-63
2021/04/22 06:58:02;;;;;;;2.85;2.75;;;14.80;53.00;;;;;;5069668;28;20203;-63
2021/04/22 07:00:36;;;;;;;3.10;3.00;;;12.90;53.60;;;;;;5078497;28;20393;-63
2021/04/22 07:03:05;;;;;;;2.80;2.70;;;11.30;58.40;;;;;;5079767;28;20426;-62
2021/04/22 07:05:33;;;;;;;3.00;2.67;;;10.40;65.20;;;;;;5075582;28;20211;-63
2021/04/22 07:08:04;;;;;;;2.50;2.50;;;10.00;66.30;;;;;;5065808;28;20207;-63
2021/04/22 07:10:32;;;;;;;2.85;2.75;;;12.00;60.70;;;;;;5073661;28;20199;-63
2021/04/22 07:13:04;;;;;;;2.95;2.85;;;13.70;54.70;;;;;;5068750;28;20537;-62
2021/04/22 07:15:31;;;;;;;3.95;3.80;;;13.40;54.60;;;;;;5068992;28;20204;-64
2021/04/22 07:17:59;;;;;;;2.83;2.72;;;12.40;56.70;;;;;;5080864;28;20385;-63
2021/04/22 07:20:27;;;;;;;2.83;2.72;;;11.20;59.70;;;;;;5073491;28;20199;-62
2021/04/22 07:22:56;;;;;;;3.78;3.58;;;10.50;67.00;;;;;;5081727;28;20198;-64
2021/04/22 07:25:26;;;;;;;2.50;2.50;;;10.00;68.30;;;;;;5066330;28;20213;-62
2021/04/22 07:27:52;;;;;;;2.72;2.70;;;10.20;71.00;;;;;;5079747;28;20213;-63
2021/04/22 07:30:21;;;;;;;3.05;2.95;;;11.90;60.10;;;;;;5081948;28;20378;-63
2021/04/22 07:32:48;;;;;;;2.88;2.80;;;11.90;58.50;;;;;;5081896;28;20574;-63
2021/04/22 07:35:18;;;;;;;2.70;2.60;;;12.00;59.60;;;;;;5081671;28;20207;-62
2021/04/22 07:37:47;;;;;;;2.78;2.67;;;11.60;59.70;;;;;;5077741;28;20277;-62
2021/04/22 07:40:22;;;;;;;3.45;3.25;;;12.00;63.00;;;;;;5075513;28;20278;-62
2021/04/22 07:42:50;;;;;;;3.28;3.17;;;13.40;55.40;;;;;;5076536;28;20230;-62
2021/04/22 07:45:20;;;;;;;3.20;3.10;;;13.00;55.60;;;;;;5084759;28;20213;-63
2021/04/22 07:47:47;;;;;;;3.83;3.72;;;12.10;58.70;;;;;;5073765;28;20210;-63
2021/04/22 07:50:16;;;;;;;3.53;3.33;;;12.20;60.80;;;;;;5076766;28;20425;-63
2021/04/22 07:52:44;;;;;;;3.90;3.70;;;14.70;53.40;;;;;;5058740;28;20237;-64
2021/04/22 07:55:15;;;;;;;3.30;3.20;;;16.50;51.10;;;;;;5081060;28;20219;-62
2021/04/22 07:57:44;;;;;;;3.42;3.33;;;16.30;49.70;;;;;;5084304;28;20202;-62
2021/04/22 08:00:14;;;;;;;3.10;3.00;;;15.50;48.90;;;;;;5074353;28;20201;-62
2021/04/22 08:02:42;;;;;;;3.22;3.13;;;14.80;49.10;;;;;;5066339;28;20218;-62
2021/04/22 08:05:11;;;;;;;3.30;3.20;;;12.80;52.50;;;;;;5073651;28;20207;-62
2021/04/22 08:07:51;;;;;;;2.90;2.80;;;11.60;57.70;;;;;;5076384;28;20202;-62
2021/04/22 08:10:22;;;;;;;3.05;2.95;;;11.70;58.30;;;;;;5076904;28;20222;-63
2021/04/22 08:12:50;;;;;;;3.00;2.90;;;12.10;56.90;;;;;;5075750;28;20242;-62
2021/04/22 08:15:17;;;;;;;3.50;3.22;;;12.00;57.30;;;;;;5073502;28;20254;-61
2021/04/22 08:17:46;;;;;;;3.20;3.10;;;12.20;59.80;;;;;;5077803;28;20225;-63
2021/04/22 08:20:19;;;;;;;3.80;3.60;;;13.00;58.30;;;;;;5074580;28;20473;-62
2021/04/22 08:22:48;;;;;;;2.60;2.60;;;14.20;52.70;;;;;;5078995;28;20249;-63
2021/04/22 08:25:21;;;;;;;3.78;3.63;;;13.40;54.00;;;;;;5077159;28;20211;-63
2021/04/22 08:27:51;;;;;;;3.05;2.95;;;14.30;52.60;;;;;;5069581;28;20208;-62
2021/04/22 08:30:25;;;;;;;4.50;4.30;;;14.80;52.60;;;;;;5073365;28;20211;-61
2021/04/22 08:32:55;;;;;;;3.40;3.30;;;17.70;46.30;;;;;;5080307;28;20546;-62
2021/04/22 08:35:23;;;;;;;3.87;3.77;;;20.10;39.40;;;;;;5075693;28;20492;-62
2021/04/22 08:37:50;;;;;;;3.30;3.20;;;19.40;39.40;;;;;;5080814;28;20489;-62
2021/04/22 08:40:18;;;;;;;3.50;3.40;;;16.30;44.30;;;;;;5080604;28;20526;-63
2021/04/22 08:42:45;;;;;;;3.33;3.22;;;14.60;48.90;;;;;;5080349;28;20461;-62
2021/04/22 08:45:14;;;;;;;3.10;3.00;;;16.10;47.50;;;;;;5082946;28;20209;-62
2021/04/22 08:47:42;;;;;;;3.30;3.20;;;17.40;42.90;;;;;;5072023;28;20450;-62
2021/04/22 08:50:23;;;;;;;3.10;3.00;;;16.50;43.70;;;;;;5078590;28;20566;-63
2021/04/22 08:52:54;;;;;;;3.63;3.53;;;16.70;45.00;;;;;;5080145;28;20493;-62
2021/04/22 08:55:25;;;;;;;3.30;3.20;;;17.00;44.50;;;;;;5079883;28;20444;-65
2021/04/22 08:57:52;;;;;;;3.53;3.43;;;18.50;41.40;;;;;;5073012;28;20765;-63
2021/04/22 09:00:25;;;;;;;3.47;3.37;;;19.00;40.40;;;;;;5080221;28;20435;-63
2021/04/22 09:02:55;;;;;;;3.70;3.60;;;18.80;41.20;;;;;;5077793;28;20415;-63
2021/04/22 09:05:25;;;;;;;3.30;3.20;;;17.70;41.50;;;;;;5079866;28;20444;-62
2021/04/22 09:07:53;;;;;;;3.90;3.80;;;17.30;42.80;;;;;;5068802;28;20753;-64
2021/04/22 09:10:24;;;;;;;3.47;3.37;;;18.00;43.50;;;;;;5079965;28;20650;-63
2021/04/22 09:13:15;;;;;;;3.37;3.27;;;18.50;40.80;;;;;;5088058;28;20482;-62
2021/04/22 09:15:45;;;;;;;3.60;3.50;;;18.40;41.80;;;;;;5070617;28;20488;-63
2021/04/22 09:18:24;;;;;;;3.30;3.20;;;16.90;43.00;;;;;;5066466;28;20769;-63
2021/04/22 09:20:53;;;;;;;3.60;3.50;;;15.90;45.10;;;;;;5080086;28;20518;-62
2021/04/22 09:23:25;;;;;;;3.40;3.30;;;15.00;46.60;;;;;;5074730;28;20791;-63
2021/04/22 09:26:07;;;;;;;3.20;3.10;;;14.50;49.60;;;;;;5076878;28;20210;-63
2021/04/22 09:28:38;;;;;;;3.42;3.33;;;13.70;53.50;;;;;;5078486;28;20234;-62
2021/04/22 09:31:07;;;;;;;3.38;3.28;;;13.00;54.80;;;;;;5076407;28;20207;-62
2021/04/22 09:33:40;;;;;;;3.20;3.10;;;12.60;56.10;;;;;;5088858;28;20582;-61
2021/04/22 09:36:16;;;;;;;3.30;3.20;;;12.20;56.50;;;;;;5075676;28;20505;-66
2021/04/22 09:38:54;;;;;;;3.35;3.25;;;11.80;59.00;;;;;;5098957;28;20235;-61
2021/04/22 09:41:26;;;;;;;4.00;3.65;;;11.90;60.00;;;;;;5086662;28;20301;-61
2021/04/22 09:44:11;;;;;;;2.70;2.70;;;12.00;60.80;;;;;;5078807;28;20256;-62
2021/04/22 09:46:45;;;;;;;3.95;3.75;;;12.20;59.40;;;;;;5090357;28;20222;-61
2021/04/22 09:49:18;;;;;;;3.00;2.90;;;12.30;59.60;;;;;;5095646;28;20217;-63
2021/04/22 09:51:48;;;;;;;3.72;3.53;;;11.90;60.50;;;;;;5092078;28;20340;-64
2021/04/22 09:54:19;;;;;;;2.95;2.85;;;11.60;59.80;;;;;;5095106;28;20711;-61
2021/04/22 09:56:48;;;;;;;3.20;3.10;;;11.50;59.20;;;;;;5077769;28;20203;-62
2021/04/22 09:59:21;;;;;;;3.20;3.10;;;11.30;59.10;;;;;;5081934;28;20310;-62
2021/04/22 10:02:02;;;;;;;3.00;2.90;;;11.10;62.30;;;;;;5072259;28;20504;-62
2021/04/22 10:04:35;;;;;;;3.10;3.00;;;11.30;61.60;;;;;;5082535;28;20672;-62
2021/04/22 10:07:04;;;;;;;3.28;3.17;;;11.60;62.80;;;;;;5070395;28;20234;-62
2021/04/22 10:09:36;;;;;;;3.00;2.90;;;11.70;62.50;;;;;;5080907;28;20322;-63
2021/04/22 10:12:04;;;;;;;3.10;3.00;;;12.00;63.00;;;;;;5078729;28;20234;-61
2021/04/22 10:14:38;;;;;;;4.03;3.83;;;11.50;60.90;;;;;;5077572;28;20206;-62
2021/04/22 10:17:14;;;;;;;3.70;3.50;;;11.80;63.60;;;;;;5072912;28;20205;-63
2021/04/22 10:19:41;;;;;;;2.90;2.80;;;12.30;60.70;;;;;;5070583;28;20232;-62
2021/04/22 10:22:08;;;;;;;3.30;3.20;;;12.30;58.70;;;;;;5077040;28;20485;-63
2021/04/22 10:24:34;;;;;;;3.25;3.15;;;12.20;59.90;;;;;;5065076;28;20203;-63
2021/04/22 10:27:04;;;;;;;3.10;3.00;;;12.30;59.10;;;;;;5075525;28;20319;-63
2021/04/22 10:29:31;;;;;;;3.45;3.35;;;12.40;60.30;;;;;;5076361;28;20210;-63
2021/04/22 10:31:58;;;;;;;4.10;3.58;;;12.50;61.00;;;;;;5078393;28;20234;-63
2021/04/22 10:34:30;;;;;;;3.00;2.90;;;12.30;61.00;;;;;;5073369;28;20191;-62
2021/04/22 10:36:58;;;;;;;3.22;3.13;;;12.40;61.70;;;;;;5077585;28;20240;-63
2021/04/22 10:39:25;;;;;;;3.70;3.40;;;12.50;59.70;;;;;;5073204;28;20242;-62
2021/04/22 10:41:52;;;;;;;3.63;3.53;;;12.80;59.90;;;;;;5079679;28;20222;-63
2021/04/22 10:44:23;;;;;;;3.83;3.72;;;13.30;58.60;;;;;;5079139;28;20202;-62
2021/04/22 10:46:50;;;;;;;3.90;3.80;;;13.20;57.60;;;;;;5083584;28;20211;-63
2021/04/22 10:49:17;;;;;;;4.43;4.03;;;12.70;57.80;;;;;;5077062;28;20195;-62
2021/04/22 10:51:45;;;;;;;5.53;5.00;;;12.80;59.30;;;;;;5083104;28;20265;-62
2021/04/22 10:54:11;;;;;;;3.40;3.30;;;12.70;57.90;;;;;;5077276;28;20263;-62
2021/04/22 10:56:38;;;;;;;4.30;4.20;;;12.90;59.70;;;;;;5082658;28;20292;-63
2021/04/22 10:59:24;;;;;;;3.30;3.20;;;13.00;59.00;;;;;;5081646;28;20708;-61
2021/04/22 11:01:50;;;;;;;3.67;3.47;;;13.60;58.90;;;;;;5082030;28;20210;-62
2021/04/22 11:04:19;;;;;;;3.28;3.17;;;14.00;56.00;;;;;;5081039;28;20206;-63
2021/04/22 11:06:46;;;;;;;3.83;3.67;;;14.00;55.60;;;;;;5081901;28;20505;-62
2021/04/22 11:09:21;;;;;;;3.40;3.30;;;13.80;55.70;;;;;;5078459;28;20203;-63
2021/04/22 11:11:59;;;;;;;3.17;3.08;;;13.90;56.60;;;;;;5066530;28;20460;-62
2021/04/22 11:14:42;;;;;;;3.40;3.30;;;13.80;56.60;;;;;;5079713;28;20207;-62
2021/04/22 11:17:10;;;;;;;3.13;3.03;;;13.90;54.40;;;;;;5081918;28;20521;-63
2021/04/22 11:19:41;;;;;;;3.42;3.33;;;13.90;57.70;;;;;;5081412;28;20379;-62
2021/04/22 11:22:21;;;;;;;3.95;3.75;;;13.80;57.30;;;;;;5082457;28;20216;-63
2021/04/22 11:24:54;;;;;;;4.18;3.97;;;13.40;56.30;;;;;;5070150;28;20204;-63
2021/04/22 11:27:22;;;;;;;3.35;3.25;;;13.00;54.70;;;;;;5083186;28;20237;-63
2021/04/22 11:29:55;;;;;;;3.55;3.45;;;12.40;58.10;;;;;;5081225;28;20485;-63
2021/04/22 11:32:28;;;;;;;3.15;3.05;;;12.60;59.20;;;;;;5074788;28;20444;-63
2021/04/22 11:35:10;;;;;;;3.63;3.53;;;13.30;58.00;;;;;;5083081;28;20437;-62
2021/04/22 11:37:43;;;;;;;3.38;3.28;;;13.60;57.20;;;;;;5076361;28;20201;-63
2021/04/22 11:40:29;;;;;;;3.20;3.10;;;13.40;56.50;;;;;;5079855;28;20248;-61
2021/04/22 11:42:59;;;;;;;3.05;2.95;;;13.20;56.70;;;;;;5076256;28;20242;-62
2021/04/22 11:45:34;;;;;;;3.30;3.20;;;13.10;57.80;;;;;;5081068;28;20203;-63
2021/04/22 11:48:11;;;;;;;3.08;2.97;;;12.60;58.20;;;;;;5081655;28;20531;-62
2021/04/22 11:50:54;;;;;;;2.97;2.88;;;12.30;59.70;;;;;;5084668;28;20234;-61
2021/04/22 11:53:45;;;;;;;2.85;2.75;;;12.00;59.80;;;;;;5078586;28;20369;-62
2021/04/22 11:56:18;;;;;;;3.30;3.20;;;12.10;61.50;;;;;;5074599;28;20203;-62
2021/04/22 11:58:51;;;;;;;3.00;2.90;;;11.50;58.90;;;;;;5085718;28;20198;-62
2021/04/22 12:01:26;;;;;;;2.72;2.72;;;11.80;59.00;;;;;;5079906;28;20213;-61
2021/04/22 12:03:54;;;;;;;2.50;2.50;;;11.70;60.50;;;;;;5084926;28;20225;-63
2021/04/22 12:06:22;;;;;;;3.30;3.20;;;12.00;60.80;;;;;;5081006;28;20198;-62
2021/04/22 12:08:49;;;;;;;6.78;4.35;;;12.30;58.90;;;;;;5081137;28;20229;-63
2021/04/22 12:11:23;;;;;;;3.70;3.60;;;12.40;58.20;;;;;;5078578;28;20280;-61
2021/04/22 12:13:50;;;;;;;3.40;3.10;;;12.30;59.60;;;;;;5081274;28;20230;-63
2021/04/22 12:16:19;;;;;;;3.10;3.00;;;12.30;59.20;;;;;;5078417;28;20210;-63
2021/04/22 12:18:46;;;;;;;3.00;2.90;;;12.40;58.50;;;;;;5061869;28;20199;-64
2021/04/22 12:21:14;;;;;;;4.60;3.40;;;12.40;57.30;;;;;;5080294;28;20345;-63
2021/04/22 12:23:47;;;;;;;3.42;3.33;;;12.40;56.80;;;;;;5064718;28;20215;-63
2021/04/22 12:26:22;;;;;;;2.70;2.70;;;12.20;57.20;;;;;;5077454;28;20232;-62
2021/04/22 12:28:53;;;;;;;4.10;4.00;;;12.50;57.70;;;;;;5062871;28;20246;-62
2021/04/22 12:31:29;;;;;;;3.35;3.25;;;12.40;57.90;;;;;;5074202;28;20551;-63
2021/04/22 12:33:58;;;;;;;3.33;3.22;;;12.20;57.00;;;;;;5069379;28;20267;-62
2021/04/22 12:36:25;;;;;;;2.70;2.70;;;12.20;59.00;;;;;;5076226;28;20195;-62
2021/04/22 12:38:52;;;;;;;2.80;2.80;;;12.40;58.30;;;;;;5079992;28;20249;-63
2021/04/22 12:41:20;;;;;;;3.35;3.25;;;12.30;56.40;;;;;;5072626;28;20402;-62
2021/04/22 12:43:49;;;;;;;2.90;2.80;;;12.20;58.30;;;;;;5060310;28;20421;-62
2021/04/22 12:46:20;;;;;;;3.22;3.13;;;12.30;58.30;;;;;;5069479;28;20194;-63
2021/04/22 12:48:57;;;;;;;3.63;3.53;;;12.40;58.80;;;;;;5080788;28;20214;-62
2021/04/22 12:51:36;;;;;;;2.80;2.70;;;12.50;56.10;;;;;;5082406;28;20233;-63
2021/04/22 12:54:04;;;;;;;3.63;3.53;;;12.30;55.10;;;;;;5079896;28;20428;-62
2021/04/22 12:56:33;;;;;;;3.40;3.30;;;12.20;54.90;;;;;;5091448;28;20482;-61
2021/04/22 12:59:09;;;;;;;3.15;3.05;;;12.20;57.40;;;;;;5086673;28;20444;-63
2021/04/22 13:01:37;;;;;;;3.20;3.10;;;12.30;58.70;;;;;;5086563;28;20225;-63